sensor_id;sensor_type;location;lat;lon;timestamp;P1;durP1;ratioP1;P2;durP2;ratioP2
55672;SDS011;41554;45.366;20.400;2023-06-14T00:00:43;7.60;;;3.83;;
55672;SDS011;41554;45.366;20.400;2023-06-14T00:03:09;8.20;;;5.72;;
55672;SDS011;41554;45.366;20.400;2023-06-14T00:05:37;7.57;;;4.03;;
55672;SDS011;41554;45.366;20.400;2023-06-14T00:08:06;8.85;;;4.57;;
55672;SDS011;41554;45.366;20.400;2023-06-14T00:10:33;6.28;;;4.13;;
55672;SDS011;41554;45.366;20.400;2023-06-14T00:13:03;12.23;;;5.70;;
55672;SDS011;41554;45.366;20.400;2023-06-14T00:15:30;10.20;;;5.70;;
55672;SDS011;41554;45.366;20.400;2023-06-14T00:17:57;4.80;;;4.03;;
55672;SDS011;41554;45.366;20.400;2023-06-14T00:20:29;6.47;;;5.00;;
55672;SDS011;41554;45.366;20.400;2023-06-14T00:22:58;6.60;;;4.40;;
55672;SDS011;41554;45.366;20.400;2023-06-14T00:25:25;13.20;;;4.00;;
55672;SDS011;41554;45.366;20.400;2023-06-14T00:27:52;6.15;;;4.00;;
55672;SDS011;41554;45.366;20.400;2023-06-14T00:30:18;5.70;;;3.97;;
55672;SDS011;41554;45.366;20.400;2023-06-14T00:32:44;9.90;;;4.78;;
55672;SDS011;41554;45.366;20.400;2023-06-14T00:35:10;5.97;;;3.88;;
55672;SDS011;41554;45.366;20.400;2023-06-14T00:37:36;6.32;;;4.68;;
55672;SDS011;41554;45.366;20.400;2023-06-14T00:40:03;7.72;;;5.13;;
55672;SDS011;41554;45.366;20.400;2023-06-14T00:42:29;8.48;;;5.03;;
55672;SDS011;41554;45.366;20.400;2023-06-14T00:44:56;7.40;;;4.70;;
55672;SDS011;41554;45.366;20.400;2023-06-14T00:47:22;5.75;;;4.07;;
55672;SDS011;41554;45.366;20.400;2023-06-14T00:49:49;8.23;;;4.88;;
55672;SDS011;41554;45.366;20.400;2023-06-14T00:52:16;7.25;;;4.47;;
55672;SDS011;41554;45.366;20.400;2023-06-14T00:54:42;7.47;;;4.57;;
55672;SDS011;41554;45.366;20.400;2023-06-14T00:57:09;4.60;;;3.92;;
55672;SDS011;41554;45.366;20.400;2023-06-14T00:59:48;8.25;;;5.32;;
55672;SDS011;41554;45.366;20.400;2023-06-14T01:02:14;5.07;;;3.72;;
55672;SDS011;41554;45.366;20.400;2023-06-14T01:04:41;9.18;;;5.50;;
55672;SDS011;41554;45.366;20.400;2023-06-14T01:09:55;8.15;;;5.00;;
55672;SDS011;41554;45.366;20.400;2023-06-14T01:14:56;6.13;;;4.43;;
55672;SDS011;41554;45.366;20.400;2023-06-14T01:17:23;8.70;;;5.35;;
55672;SDS011;41554;45.366;20.400;2023-06-14T01:19:52;7.55;;;4.90;;
55672;SDS011;41554;45.366;20.400;2023-06-14T01:22:24;8.77;;;4.40;;
55672;SDS011;41554;45.366;20.400;2023-06-14T01:24:50;6.68;;;4.68;;
55672;SDS011;41554;45.366;20.400;2023-06-14T01:27:20;6.85;;;4.13;;
55672;SDS011;41554;45.366;20.400;2023-06-14T01:29:46;7.70;;;4.80;;
55672;SDS011;41554;45.366;20.400;2023-06-14T01:32:13;12.40;;;6.22;;
55672;SDS011;41554;45.366;20.400;2023-06-14T01:34:39;6.47;;;4.75;;
55672;SDS011;41554;45.366;20.400;2023-06-14T01:37:05;5.65;;;3.80;;
55672;SDS011;41554;45.366;20.400;2023-06-14T01:39:32;6.47;;;4.07;;
55672;SDS011;41554;45.366;20.400;2023-06-14T01:41:59;7.28;;;5.40;;
55672;SDS011;41554;45.366;20.400;2023-06-14T01:44:26;10.32;;;6.95;;
55672;SDS011;41554;45.366;20.400;2023-06-14T01:46:53;14.00;;;6.40;;
55672;SDS011;41554;45.366;20.400;2023-06-14T01:49:19;9.85;;;6.53;;
55672;SDS011;41554;45.366;20.400;2023-06-14T01:51:45;11.55;;;7.82;;
55672;SDS011;41554;45.366;20.400;2023-06-14T01:54:12;11.32;;;8.13;;
55672;SDS011;41554;45.366;20.400;2023-06-14T01:56:38;25.05;;;7.80;;
55672;SDS011;41554;45.366;20.400;2023-06-14T01:59:04;12.20;;;8.23;;
55672;SDS011;41554;45.366;20.400;2023-06-14T02:01:30;12.77;;;7.57;;
55672;SDS011;41554;45.366;20.400;2023-06-14T02:03:56;8.95;;;6.97;;
55672;SDS011;41554;45.366;20.400;2023-06-14T02:06:22;10.82;;;7.45;;
55672;SDS011;41554;45.366;20.400;2023-06-14T02:08:49;10.18;;;6.22;;
55672;SDS011;41554;45.366;20.400;2023-06-14T02:11:15;14.90;;;5.95;;
55672;SDS011;41554;45.366;20.400;2023-06-14T02:13:42;7.93;;;5.82;;
55672;SDS011;41554;45.366;20.400;2023-06-14T02:16:08;7.90;;;5.00;;
55672;SDS011;41554;45.366;20.400;2023-06-14T02:18:34;8.20;;;5.82;;
55672;SDS011;41554;45.366;20.400;2023-06-14T02:21:01;10.88;;;5.30;;
55672;SDS011;41554;45.366;20.400;2023-06-14T02:23:27;9.75;;;6.68;;
55672;SDS011;41554;45.366;20.400;2023-06-14T02:25:53;12.60;;;6.57;;
55672;SDS011;41554;45.366;20.400;2023-06-14T02:28:19;13.73;;;7.78;;
55672;SDS011;41554;45.366;20.400;2023-06-14T02:30:45;11.77;;;7.20;;
55672;SDS011;41554;45.366;20.400;2023-06-14T02:33:11;14.55;;;9.02;;
55672;SDS011;41554;45.366;20.400;2023-06-14T02:35:38;16.10;;;8.10;;
55672;SDS011;41554;45.366;20.400;2023-06-14T02:38:04;15.70;;;9.52;;
55672;SDS011;41554;45.366;20.400;2023-06-14T02:40:30;18.50;;;11.95;;
55672;SDS011;41554;45.366;20.400;2023-06-14T02:42:56;17.20;;;13.38;;
55672;SDS011;41554;45.366;20.400;2023-06-14T02:45:22;18.27;;;12.60;;
55672;SDS011;41554;45.366;20.400;2023-06-14T02:47:48;18.95;;;11.80;;
55672;SDS011;41554;45.366;20.400;2023-06-14T02:50:15;15.93;;;11.18;;
55672;SDS011;41554;45.366;20.400;2023-06-14T02:52:41;14.13;;;10.50;;
55672;SDS011;41554;45.366;20.400;2023-06-14T02:55:09;15.75;;;10.75;;
55672;SDS011;41554;45.366;20.400;2023-06-14T02:57:35;13.63;;;7.43;;
55672;SDS011;41554;45.366;20.400;2023-06-14T03:00:02;11.55;;;7.80;;
55672;SDS011;41554;45.366;20.400;2023-06-14T03:02:28;12.25;;;6.15;;
55672;SDS011;41554;45.366;20.400;2023-06-14T03:04:54;15.73;;;7.07;;
55672;SDS011;41554;45.366;20.400;2023-06-14T03:07:20;10.38;;;6.40;;
55672;SDS011;41554;45.366;20.400;2023-06-14T03:09:48;9.50;;;6.65;;
55672;SDS011;41554;45.366;20.400;2023-06-14T03:12:14;18.08;;;6.05;;
55672;SDS011;41554;45.366;20.400;2023-06-14T03:14:40;8.23;;;5.82;;
55672;SDS011;41554;45.366;20.400;2023-06-14T03:17:07;13.90;;;7.30;;
55672;SDS011;41554;45.366;20.400;2023-06-14T03:19:33;14.70;;;7.40;;
55672;SDS011;41554;45.366;20.400;2023-06-14T03:21:59;8.07;;;6.50;;
55672;SDS011;41554;45.366;20.400;2023-06-14T03:24:25;7.80;;;5.95;;
55672;SDS011;41554;45.366;20.400;2023-06-14T03:26:54;8.27;;;6.35;;
55672;SDS011;41554;45.366;20.400;2023-06-14T03:29:21;11.35;;;6.93;;
55672;SDS011;41554;45.366;20.400;2023-06-14T03:32:00;8.65;;;6.15;;
55672;SDS011;41554;45.366;20.400;2023-06-14T03:34:26;16.25;;;7.38;;
55672;SDS011;41554;45.366;20.400;2023-06-14T03:36:53;12.50;;;6.78;;
55672;SDS011;41554;45.366;20.400;2023-06-14T03:39:19;7.93;;;5.75;;
55672;SDS011;41554;45.366;20.400;2023-06-14T03:41:45;8.48;;;6.25;;
55672;SDS011;41554;45.366;20.400;2023-06-14T03:44:11;6.95;;;4.90;;
55672;SDS011;41554;45.366;20.400;2023-06-14T03:46:37;7.15;;;5.60;;
55672;SDS011;41554;45.366;20.400;2023-06-14T03:49:03;6.55;;;4.95;;
55672;SDS011;41554;45.366;20.400;2023-06-14T03:51:29;7.95;;;5.70;;
55672;SDS011;41554;45.366;20.400;2023-06-14T03:53:55;10.73;;;5.57;;
55672;SDS011;41554;45.366;20.400;2023-06-14T03:56:21;17.02;;;6.22;;
55672;SDS011;41554;45.366;20.400;2023-06-14T03:58:47;14.43;;;6.18;;
55672;SDS011;41554;45.366;20.400;2023-06-14T04:01:13;8.63;;;6.20;;
55672;SDS011;41554;45.366;20.400;2023-06-14T04:03:39;9.63;;;5.13;;
55672;SDS011;41554;45.366;20.400;2023-06-14T04:06:06;9.52;;;5.85;;
55672;SDS011;41554;45.366;20.400;2023-06-14T04:08:32;11.70;;;7.43;;
55672;SDS011;41554;45.366;20.400;2023-06-14T04:10:59;11.70;;;6.15;;
55672;SDS011;41554;45.366;20.400;2023-06-14T04:13:25;9.40;;;6.38;;
55672;SDS011;41554;45.366;20.400;2023-06-14T04:15:51;8.68;;;5.60;;
55672;SDS011;41554;45.366;20.400;2023-06-14T04:18:17;7.65;;;5.68;;
55672;SDS011;41554;45.366;20.400;2023-06-14T04:20:44;7.20;;;4.85;;
55672;SDS011;41554;45.366;20.400;2023-06-14T04:23:17;9.07;;;5.53;;
55672;SDS011;41554;45.366;20.400;2023-06-14T04:25:43;8.38;;;5.70;;
55672;SDS011;41554;45.366;20.400;2023-06-14T04:28:13;8.40;;;5.45;;
55672;SDS011;41554;45.366;20.400;2023-06-14T04:30:43;12.35;;;5.25;;
55672;SDS011;41554;45.366;20.400;2023-06-14T04:33:12;10.20;;;4.97;;
55672;SDS011;41554;45.366;20.400;2023-06-14T04:35:38;9.30;;;5.97;;
55672;SDS011;41554;45.366;20.400;2023-06-14T04:38:05;8.45;;;4.72;;
55672;SDS011;41554;45.366;20.400;2023-06-14T04:40:35;6.97;;;4.82;;
55672;SDS011;41554;45.366;20.400;2023-06-14T04:43:07;8.13;;;5.95;;
55672;SDS011;41554;45.366;20.400;2023-06-14T04:45:33;14.90;;;6.45;;
55672;SDS011;41554;45.366;20.400;2023-06-14T04:48:01;18.15;;;5.75;;
55672;SDS011;41554;45.366;20.400;2023-06-14T04:50:28;6.78;;;4.35;;
55672;SDS011;41554;45.366;20.400;2023-06-14T04:52:57;8.75;;;5.82;;
55672;SDS011;41554;45.366;20.400;2023-06-14T04:55:24;19.27;;;5.50;;
55672;SDS011;41554;45.366;20.400;2023-06-14T04:57:51;9.50;;;4.38;;
55672;SDS011;41554;45.366;20.400;2023-06-14T05:00:19;10.73;;;6.05;;
55672;SDS011;41554;45.366;20.400;2023-06-14T05:02:45;8.30;;;4.65;;
55672;SDS011;41554;45.366;20.400;2023-06-14T05:05:12;17.98;;;4.75;;
55672;SDS011;41554;45.366;20.400;2023-06-14T05:07:38;9.25;;;5.03;;
55672;SDS011;41554;45.366;20.400;2023-06-14T05:10:04;4.95;;;4.32;;
55672;SDS011;41554;45.366;20.400;2023-06-14T05:12:30;6.90;;;4.75;;
55672;SDS011;41554;45.366;20.400;2023-06-14T05:14:57;7.28;;;5.00;;
55672;SDS011;41554;45.366;20.400;2023-06-14T05:17:23;7.43;;;4.75;;
55672;SDS011;41554;45.366;20.400;2023-06-14T05:19:49;9.05;;;5.22;;
55672;SDS011;41554;45.366;20.400;2023-06-14T05:22:16;8.38;;;5.05;;
55672;SDS011;41554;45.366;20.400;2023-06-14T05:24:42;8.55;;;5.32;;
55672;SDS011;41554;45.366;20.400;2023-06-14T05:27:08;7.63;;;5.20;;
55672;SDS011;41554;45.366;20.400;2023-06-14T05:29:34;7.85;;;4.72;;
55672;SDS011;41554;45.366;20.400;2023-06-14T05:32:00;9.82;;;4.57;;
55672;SDS011;41554;45.366;20.400;2023-06-14T05:34:26;6.22;;;4.15;;
55672;SDS011;41554;45.366;20.400;2023-06-14T05:36:52;5.85;;;3.97;;
55672;SDS011;41554;45.366;20.400;2023-06-14T05:39:18;15.32;;;5.43;;
55672;SDS011;41554;45.366;20.400;2023-06-14T05:41:44;6.47;;;4.07;;
55672;SDS011;41554;45.366;20.400;2023-06-14T05:44:10;7.65;;;4.90;;
55672;SDS011;41554;45.366;20.400;2023-06-14T05:46:36;6.13;;;4.75;;
55672;SDS011;41554;45.366;20.400;2023-06-14T05:49:04;7.03;;;4.07;;
55672;SDS011;41554;45.366;20.400;2023-06-14T05:51:31;7.00;;;4.13;;
55672;SDS011;41554;45.366;20.400;2023-06-14T05:53:57;11.07;;;4.03;;
55672;SDS011;41554;45.366;20.400;2023-06-14T05:56:23;10.48;;;5.63;;
55672;SDS011;41554;45.366;20.400;2023-06-14T05:58:50;31.80;;;5.78;;
55672;SDS011;41554;45.366;20.400;2023-06-14T06:01:16;8.10;;;4.38;;
55672;SDS011;41554;45.366;20.400;2023-06-14T06:03:42;9.75;;;3.85;;
55672;SDS011;41554;45.366;20.400;2023-06-14T06:06:12;9.25;;;5.30;;
55672;SDS011;41554;45.366;20.400;2023-06-14T06:08:38;17.00;;;6.85;;
55672;SDS011;41554;45.366;20.400;2023-06-14T06:11:04;13.45;;;5.80;;
55672;SDS011;41554;45.366;20.400;2023-06-14T06:13:30;9.05;;;5.28;;
55672;SDS011;41554;45.366;20.400;2023-06-14T06:15:56;6.13;;;4.75;;
55672;SDS011;41554;45.366;20.400;2023-06-14T06:18:22;15.75;;;4.45;;
55672;SDS011;41554;45.366;20.400;2023-06-14T06:20:48;7.75;;;3.38;;
55672;SDS011;41554;45.366;20.400;2023-06-14T06:23:14;4.97;;;3.72;;
55672;SDS011;41554;45.366;20.400;2023-06-14T06:25:40;7.53;;;4.13;;
55672;SDS011;41554;45.366;20.400;2023-06-14T06:28:07;5.43;;;3.90;;
55672;SDS011;41554;45.366;20.400;2023-06-14T06:30:33;7.03;;;3.70;;
55672;SDS011;41554;45.366;20.400;2023-06-14T06:32:59;4.00;;;3.15;;
55672;SDS011;41554;45.366;20.400;2023-06-14T06:35:25;9.23;;;3.63;;
55672;SDS011;41554;45.366;20.400;2023-06-14T06:37:51;4.65;;;3.92;;
55672;SDS011;41554;45.366;20.400;2023-06-14T06:40:17;5.53;;;4.25;;
55672;SDS011;41554;45.366;20.400;2023-06-14T06:42:43;6.25;;;4.10;;
55672;SDS011;41554;45.366;20.400;2023-06-14T06:45:09;6.68;;;3.67;;
55672;SDS011;41554;45.366;20.400;2023-06-14T06:47:36;3.70;;;2.55;;
55672;SDS011;41554;45.366;20.400;2023-06-14T06:50:02;8.45;;;4.30;;
55672;SDS011;41554;45.366;20.400;2023-06-14T06:52:28;5.80;;;3.13;;
55672;SDS011;41554;45.366;20.400;2023-06-14T06:54:54;6.72;;;3.25;;
55672;SDS011;41554;45.366;20.400;2023-06-14T06:57:21;4.45;;;3.25;;
55672;SDS011;41554;45.366;20.400;2023-06-14T06:59:48;3.53;;;2.67;;
55672;SDS011;41554;45.366;20.400;2023-06-14T07:02:14;7.38;;;4.07;;
55672;SDS011;41554;45.366;20.400;2023-06-14T07:04:40;7.03;;;4.28;;
55672;SDS011;41554;45.366;20.400;2023-06-14T07:07:06;10.00;;;4.50;;
55672;SDS011;41554;45.366;20.400;2023-06-14T07:09:34;4.25;;;2.85;;
55672;SDS011;41554;45.366;20.400;2023-06-14T07:12:00;7.05;;;3.55;;
55672;SDS011;41554;45.366;20.400;2023-06-14T07:14:26;4.15;;;2.50;;
55672;SDS011;41554;45.366;20.400;2023-06-14T07:16:54;5.93;;;3.85;;
55672;SDS011;41554;45.366;20.400;2023-06-14T07:19:20;10.30;;;3.28;;
55672;SDS011;41554;45.366;20.400;2023-06-14T07:21:46;9.80;;;3.60;;
55672;SDS011;41554;45.366;20.400;2023-06-14T07:24:12;5.78;;;3.35;;
55672;SDS011;41554;45.366;20.400;2023-06-14T07:26:38;8.63;;;3.78;;
55672;SDS011;41554;45.366;20.400;2023-06-14T07:29:04;4.97;;;3.38;;
55672;SDS011;41554;45.366;20.400;2023-06-14T07:31:30;7.05;;;3.40;;
55672;SDS011;41554;45.366;20.400;2023-06-14T07:33:56;3.78;;;2.80;;
55672;SDS011;41554;45.366;20.400;2023-06-14T07:36:22;7.85;;;3.45;;
55672;SDS011;41554;45.366;20.400;2023-06-14T07:38:48;10.13;;;4.63;;
55672;SDS011;41554;45.366;20.400;2023-06-14T07:41:14;3.60;;;2.72;;
55672;SDS011;41554;45.366;20.400;2023-06-14T07:43:41;6.07;;;3.30;;
55672;SDS011;41554;45.366;20.400;2023-06-14T07:46:07;4.93;;;3.72;;
55672;SDS011;41554;45.366;20.400;2023-06-14T07:48:34;5.55;;;3.33;;
55672;SDS011;41554;45.366;20.400;2023-06-14T07:51:00;7.10;;;3.20;;
55672;SDS011;41554;45.366;20.400;2023-06-14T07:53:26;3.50;;;2.25;;
55672;SDS011;41554;45.366;20.400;2023-06-14T07:55:52;3.75;;;2.35;;
55672;SDS011;41554;45.366;20.400;2023-06-14T07:58:18;4.18;;;3.05;;
55672;SDS011;41554;45.366;20.400;2023-06-14T08:00:44;10.20;;;3.80;;
55672;SDS011;41554;45.366;20.400;2023-06-14T08:03:11;11.00;;;3.17;;
55672;SDS011;41554;45.366;20.400;2023-06-14T08:05:37;3.75;;;3.00;;
55672;SDS011;41554;45.366;20.400;2023-06-14T08:08:03;12.68;;;3.20;;
55672;SDS011;41554;45.366;20.400;2023-06-14T08:10:30;3.42;;;2.55;;
55672;SDS011;41554;45.366;20.400;2023-06-14T08:12:56;6.28;;;3.92;;
55672;SDS011;41554;45.366;20.400;2023-06-14T08:15:22;3.13;;;2.75;;
55672;SDS011;41554;45.366;20.400;2023-06-14T08:17:48;4.65;;;2.67;;
55672;SDS011;41554;45.366;20.400;2023-06-14T08:20:15;5.70;;;3.50;;
55672;SDS011;41554;45.366;20.400;2023-06-14T08:22:41;4.43;;;2.65;;
55672;SDS011;41554;45.366;20.400;2023-06-14T08:25:08;7.78;;;3.10;;
55672;SDS011;41554;45.366;20.400;2023-06-14T08:27:34;11.30;;;6.22;;
55672;SDS011;41554;45.366;20.400;2023-06-14T08:30:01;20.48;;;6.22;;
55672;SDS011;41554;45.366;20.400;2023-06-14T08:32:28;16.63;;;5.20;;
55672;SDS011;41554;45.366;20.400;2023-06-14T08:34:54;4.53;;;2.80;;
55672;SDS011;41554;45.366;20.400;2023-06-14T08:37:20;2.90;;;2.42;;
55672;SDS011;41554;45.366;20.400;2023-06-14T08:39:46;9.68;;;3.35;;
55672;SDS011;41554;45.366;20.400;2023-06-14T08:42:12;6.70;;;3.03;;
55672;SDS011;41554;45.366;20.400;2023-06-14T08:44:40;9.88;;;3.40;;
55672;SDS011;41554;45.366;20.400;2023-06-14T08:47:06;9.10;;;3.47;;
55672;SDS011;41554;45.366;20.400;2023-06-14T08:49:33;4.80;;;3.65;;
55672;SDS011;41554;45.366;20.400;2023-06-14T08:52:01;6.40;;;3.20;;
55672;SDS011;41554;45.366;20.400;2023-06-14T08:54:28;5.38;;;3.15;;
55672;SDS011;41554;45.366;20.400;2023-06-14T08:57:01;3.65;;;2.92;;
55672;SDS011;41554;45.366;20.400;2023-06-14T08:59:27;4.22;;;3.65;;
55672;SDS011;41554;45.366;20.400;2023-06-14T09:01:53;4.03;;;3.10;;
55672;SDS011;41554;45.366;20.400;2023-06-14T09:04:20;4.68;;;2.90;;
55672;SDS011;41554;45.366;20.400;2023-06-14T09:06:54;3.75;;;2.63;;
55672;SDS011;41554;45.366;20.400;2023-06-14T09:09:20;3.45;;;2.58;;
55672;SDS011;41554;45.366;20.400;2023-06-14T09:11:49;5.15;;;2.78;;
55672;SDS011;41554;45.366;20.400;2023-06-14T09:14:15;3.63;;;2.58;;
55672;SDS011;41554;45.366;20.400;2023-06-14T09:16:41;6.35;;;3.33;;
55672;SDS011;41554;45.366;20.400;2023-06-14T09:19:07;6.03;;;2.67;;
55672;SDS011;41554;45.366;20.400;2023-06-14T09:21:34;4.15;;;3.22;;
55672;SDS011;41554;45.366;20.400;2023-06-14T09:24:01;5.20;;;3.03;;
55672;SDS011;41554;45.366;20.400;2023-06-14T09:26:27;4.20;;;3.00;;
55672;SDS011;41554;45.366;20.400;2023-06-14T09:28:54;4.38;;;2.80;;
55672;SDS011;41554;45.366;20.400;2023-06-14T09:31:20;5.70;;;3.60;;
55672;SDS011;41554;45.366;20.400;2023-06-14T09:36:23;6.95;;;2.45;;
55672;SDS011;41554;45.366;20.400;2023-06-14T09:38:56;5.57;;;3.20;;
55672;SDS011;41554;45.366;20.400;2023-06-14T09:41:39;5.10;;;3.67;;
55672;SDS011;41554;45.366;20.400;2023-06-14T09:44:05;5.35;;;3.05;;
55672;SDS011;41554;45.366;20.400;2023-06-14T09:46:32;4.25;;;3.10;;
55672;SDS011;41554;45.366;20.400;2023-06-14T09:48:58;6.15;;;2.70;;
55672;SDS011;41554;45.366;20.400;2023-06-14T09:51:25;5.05;;;2.92;;
55672;SDS011;41554;45.366;20.400;2023-06-14T09:53:52;4.13;;;3.08;;
55672;SDS011;41554;45.366;20.400;2023-06-14T09:56:20;5.72;;;2.70;;
55672;SDS011;41554;45.366;20.400;2023-06-14T09:58:48;3.78;;;2.97;;
55672;SDS011;41554;45.366;20.400;2023-06-14T10:01:15;4.15;;;3.13;;
55672;SDS011;41554;45.366;20.400;2023-06-14T10:03:42;3.42;;;2.08;;
55672;SDS011;41554;45.366;20.400;2023-06-14T10:06:09;4.07;;;2.50;;
55672;SDS011;41554;45.366;20.400;2023-06-14T10:08:36;4.53;;;2.60;;
55672;SDS011;41554;45.366;20.400;2023-06-14T10:11:02;5.47;;;3.53;;
55672;SDS011;41554;45.366;20.400;2023-06-14T10:13:28;3.15;;;2.20;;
55672;SDS011;41554;45.366;20.400;2023-06-14T10:23:37;4.32;;;3.38;;
55672;SDS011;41554;45.366;20.400;2023-06-14T10:26:04;3.67;;;2.75;;
55672;SDS011;41554;45.366;20.400;2023-06-14T10:28:30;3.85;;;2.80;;
55672;SDS011;41554;45.366;20.400;2023-06-14T10:31:10;5.90;;;3.05;;
55672;SDS011;41554;45.366;20.400;2023-06-14T10:33:41;2.88;;;2.40;;
55672;SDS011;41554;45.366;20.400;2023-06-14T10:36:29;4.75;;;3.40;;
55672;SDS011;41554;45.366;20.400;2023-06-14T10:39:15;5.37;;;3.33;;
55672;SDS011;41554;45.366;20.400;2023-06-14T10:41:42;5.15;;;3.42;;
55672;SDS011;41554;45.366;20.400;2023-06-14T10:49:20;4.05;;;3.00;;
55672;SDS011;41554;45.366;20.400;2023-06-14T10:52:05;5.68;;;4.15;;
55672;SDS011;41554;45.366;20.400;2023-06-14T10:57:26;6.07;;;3.13;;
55672;SDS011;41554;45.366;20.400;2023-06-14T10:59:53;5.88;;;4.05;;
55672;SDS011;41554;45.366;20.400;2023-06-14T11:04:47;7.93;;;3.05;;
55672;SDS011;41554;45.366;20.400;2023-06-14T11:10:40;3.38;;;2.33;;
55672;SDS011;41554;45.366;20.400;2023-06-14T11:12:48;6.68;;;3.65;;
55672;SDS011;41554;45.366;20.400;2023-06-14T11:15:14;3.25;;;2.25;;
55672;SDS011;41554;45.366;20.400;2023-06-14T11:17:49;4.80;;;3.80;;
55672;SDS011;41554;45.366;20.400;2023-06-14T11:20:18;6.05;;;2.75;;
55672;SDS011;41554;45.366;20.400;2023-06-14T11:22:44;8.98;;;3.85;;
55672;SDS011;41554;45.366;20.400;2023-06-14T11:25:11;6.90;;;4.05;;
55672;SDS011;41554;45.366;20.400;2023-06-14T11:27:37;2.80;;;2.50;;
55672;SDS011;41554;45.366;20.400;2023-06-14T11:30:06;3.58;;;2.72;;
55672;SDS011;41554;45.366;20.400;2023-06-14T11:32:33;7.20;;;3.58;;
55672;SDS011;41554;45.366;20.400;2023-06-14T11:34:59;5.47;;;4.03;;
55672;SDS011;41554;45.366;20.400;2023-06-14T11:37:26;3.60;;;2.90;;
55672;SDS011;41554;45.366;20.400;2023-06-14T11:39:57;3.58;;;3.13;;
55672;SDS011;41554;45.366;20.400;2023-06-14T11:42:24;5.45;;;3.75;;
55672;SDS011;41554;45.366;20.400;2023-06-14T11:44:50;4.55;;;3.38;;
55672;SDS011;41554;45.366;20.400;2023-06-14T11:47:16;7.95;;;3.10;;
55672;SDS011;41554;45.366;20.400;2023-06-14T11:49:42;4.28;;;2.72;;
55672;SDS011;41554;45.366;20.400;2023-06-14T11:52:08;4.75;;;3.15;;
55672;SDS011;41554;45.366;20.400;2023-06-14T11:54:34;4.30;;;3.25;;
55672;SDS011;41554;45.366;20.400;2023-06-14T11:57:00;6.40;;;3.38;;
55672;SDS011;41554;45.366;20.400;2023-06-14T11:59:27;7.55;;;4.15;;
55672;SDS011;41554;45.366;20.400;2023-06-14T12:01:53;4.65;;;3.00;;
55672;SDS011;41554;45.366;20.400;2023-06-14T12:04:23;4.13;;;3.10;;
55672;SDS011;41554;45.366;20.400;2023-06-14T12:06:50;6.60;;;3.92;;
55672;SDS011;41554;45.366;20.400;2023-06-14T12:09:18;4.68;;;3.30;;
55672;SDS011;41554;45.366;20.400;2023-06-14T12:11:44;5.28;;;3.72;;
55672;SDS011;41554;45.366;20.400;2023-06-14T12:14:11;6.25;;;4.22;;
55672;SDS011;41554;45.366;20.400;2023-06-14T12:16:37;3.70;;;2.85;;
55672;SDS011;41554;45.366;20.400;2023-06-14T12:19:11;5.05;;;3.33;;
55672;SDS011;41554;45.366;20.400;2023-06-14T12:21:38;6.03;;;2.45;;
55672;SDS011;41554;45.366;20.400;2023-06-14T12:24:05;7.22;;;3.22;;
55672;SDS011;41554;45.366;20.400;2023-06-14T12:26:32;3.40;;;2.63;;
55672;SDS011;41554;45.366;20.400;2023-06-14T12:28:58;5.03;;;3.50;;
55672;SDS011;41554;45.366;20.400;2023-06-14T12:31:24;6.90;;;4.05;;
55672;SDS011;41554;45.366;20.400;2023-06-14T12:33:51;4.70;;;3.28;;
55672;SDS011;41554;45.366;20.400;2023-06-14T12:36:17;4.07;;;2.80;;
55672;SDS011;41554;45.366;20.400;2023-06-14T12:38:45;5.10;;;3.53;;
55672;SDS011;41554;45.366;20.400;2023-06-14T12:41:11;4.45;;;3.90;;
55672;SDS011;41554;45.366;20.400;2023-06-14T12:43:39;4.43;;;3.13;;
55672;SDS011;41554;45.366;20.400;2023-06-14T12:46:05;4.45;;;3.13;;
55672;SDS011;41554;45.366;20.400;2023-06-14T12:48:31;6.47;;;3.75;;
55672;SDS011;41554;45.366;20.400;2023-06-14T12:50:59;4.97;;;3.50;;
55672;SDS011;41554;45.366;20.400;2023-06-14T12:53:25;4.38;;;3.35;;
55672;SDS011;41554;45.366;20.400;2023-06-14T12:55:51;5.70;;;3.83;;
55672;SDS011;41554;45.366;20.400;2023-06-14T12:58:17;7.13;;;4.28;;
55672;SDS011;41554;45.366;20.400;2023-06-14T13:00:44;5.72;;;4.38;;
55672;SDS011;41554;45.366;20.400;2023-06-14T13:03:10;5.13;;;3.97;;
55672;SDS011;41554;45.366;20.400;2023-06-14T13:05:36;3.85;;;3.30;;
55672;SDS011;41554;45.366;20.400;2023-06-14T13:08:06;7.30;;;4.63;;
55672;SDS011;41554;45.366;20.400;2023-06-14T13:10:33;4.97;;;3.83;;
55672;SDS011;41554;45.366;20.400;2023-06-14T13:12:59;4.28;;;2.92;;
55672;SDS011;41554;45.366;20.400;2023-06-14T13:15:25;5.05;;;3.00;;
55672;SDS011;41554;45.366;20.400;2023-06-14T13:17:52;5.95;;;3.80;;
55672;SDS011;41554;45.366;20.400;2023-06-14T13:20:18;9.60;;;4.05;;
55672;SDS011;41554;45.366;20.400;2023-06-14T13:22:44;4.00;;;3.15;;
55672;SDS011;41554;45.366;20.400;2023-06-14T13:25:10;4.93;;;3.15;;
55672;SDS011;41554;45.366;20.400;2023-06-14T13:27:36;5.60;;;3.33;;
55672;SDS011;41554;45.366;20.400;2023-06-14T13:30:03;4.45;;;2.78;;
55672;SDS011;41554;45.366;20.400;2023-06-14T13:32:30;5.80;;;3.10;;
55672;SDS011;41554;45.366;20.400;2023-06-14T13:34:56;4.10;;;3.20;;
55672;SDS011;41554;45.366;20.400;2023-06-14T13:37:22;5.97;;;3.40;;
55672;SDS011;41554;45.366;20.400;2023-06-14T13:39:49;4.28;;;2.92;;
55672;SDS011;41554;45.366;20.400;2023-06-14T13:42:15;4.93;;;3.15;;
55672;SDS011;41554;45.366;20.400;2023-06-14T13:44:41;4.38;;;3.05;;
55672;SDS011;41554;45.366;20.400;2023-06-14T13:47:07;7.18;;;3.72;;
55672;SDS011;41554;45.366;20.400;2023-06-14T13:49:33;7.00;;;4.35;;
55672;SDS011;41554;45.366;20.400;2023-06-14T13:52:00;5.65;;;4.15;;
55672;SDS011;41554;45.366;20.400;2023-06-14T13:54:26;4.13;;;2.67;;
55672;SDS011;41554;45.366;20.400;2023-06-14T13:56:52;6.47;;;3.25;;
55672;SDS011;41554;45.366;20.400;2023-06-14T13:59:19;5.97;;;4.00;;
55672;SDS011;41554;45.366;20.400;2023-06-14T14:01:45;6.22;;;3.72;;
55672;SDS011;41554;45.366;20.400;2023-06-14T14:04:12;4.55;;;3.58;;
55672;SDS011;41554;45.366;20.400;2023-06-14T14:06:38;4.38;;;3.25;;
55672;SDS011;41554;45.366;20.400;2023-06-14T14:09:04;6.43;;;3.67;;
55672;SDS011;41554;45.366;20.400;2023-06-14T14:11:30;7.32;;;4.15;;
55672;SDS011;41554;45.366;20.400;2023-06-14T14:13:58;7.15;;;3.47;;
55672;SDS011;41554;45.366;20.400;2023-06-14T14:16:24;9.65;;;2.95;;
55672;SDS011;41554;45.366;20.400;2023-06-14T14:18:50;5.47;;;3.95;;
55672;SDS011;41554;45.366;20.400;2023-06-14T14:21:16;3.15;;;2.67;;
55672;SDS011;41554;45.366;20.400;2023-06-14T14:23:42;4.47;;;3.10;;
55672;SDS011;41554;45.366;20.400;2023-06-14T14:26:10;3.45;;;2.92;;
55672;SDS011;41554;45.366;20.400;2023-06-14T14:28:36;4.88;;;3.47;;
55672;SDS011;41554;45.366;20.400;2023-06-14T14:31:02;7.90;;;4.05;;
55672;SDS011;41554;45.366;20.400;2023-06-14T14:33:28;5.28;;;3.05;;
55672;SDS011;41554;45.366;20.400;2023-06-14T14:35:54;4.18;;;2.97;;
55672;SDS011;41554;45.366;20.400;2023-06-14T14:38:20;6.22;;;3.72;;
55672;SDS011;41554;45.366;20.400;2023-06-14T14:40:47;4.13;;;3.05;;
55672;SDS011;41554;45.366;20.400;2023-06-14T14:43:13;4.75;;;3.28;;
55672;SDS011;41554;45.366;20.400;2023-06-14T14:45:39;10.05;;;4.15;;
55672;SDS011;41554;45.366;20.400;2023-06-14T14:48:05;4.22;;;3.05;;
55672;SDS011;41554;45.366;20.400;2023-06-14T14:50:31;5.55;;;3.47;;
55672;SDS011;41554;45.366;20.400;2023-06-14T14:52:57;5.35;;;2.63;;
55672;SDS011;41554;45.366;20.400;2023-06-14T14:55:24;5.25;;;2.85;;
55672;SDS011;41554;45.366;20.400;2023-06-14T14:57:50;9.30;;;2.85;;